Decoded Metar for KASX (ASHLAND in WI, USA) (IATA:ASX) | Meteo·Mobile Aviation Weather
aviador You're here:

KASX Decoded Metar

ASHLAND in WI, USA
Report Time2020-02-25 19:53:00
UTC Time2020-02-25 20:44:40
Flight Rules vfr VFR
Wind070° at 07 kt
W.Decomp.*RWY 02: 4.3 kt HW 5.5 kt RCW
RWY 13: 3.7 kt HW 5.9 kt LCW
Visibility9999 m
Phenomena:N/A
Clouds:Scattered 025 Hf
Overcast 035 Hf
Expected CloudBase > 1,600 ft AGL from Temp-Dew spread
Ceiling3,500 ft
Temp-2°C (ISA -15)
Dew Point-6°C (74% RH)
AAT-7.2°C
QNH1026 hPa
Density Alt-1,444 ft
Elevation823 ft
Report Wrong Elevation
Raw Report
KASX 251953Z AUTO 07007KT 10SM SCT025 OVC035 M02/M06 A3031 RMK AO2
SLP279 T10171061=

Extra information for KASX:More info

Metar Taf Metar & Taf Last 4 Metars F.Rules Stats Wind Profile Meteogram Temp Stats Airport Information Weather charts Add Link Nearby VenuesMetar ALERT Operation Metar Decoded Social comments

AIRNAV info for KASX